Time;durP1;ratioP1;P1;durP2;ratioP2;P2;SDS_P1;SDS_P2;PMS_P1;PMS_P2;Temp;Humidity;BMP_temperature;BMP_pressure;BME280_temperature;BME280_humidity;BME280_pressure;Samples;Min_cycle;Max_cycle;Signal;HPM_P1;HPM_P2
2021/05/29 00:01:45;;;;;;;;;;;12.20;99.90;;;;;;4993075;28;20232;-77
2021/05/29 00:04:11;;;;;;;;;;;12.20;99.90;;;;;;4993210;28;19959;-77
2021/05/29 00:06:36;;;;;;;;;;;12.10;99.90;;;;;;4991910;28;19906;-77
2021/05/29 00:09:02;;;;;;;;;;;12.20;99.90;;;;;;4993057;28;19905;-77
2021/05/29 00:11:27;;;;;;;;;;;12.10;99.90;;;;;;4993191;28;19913;-77
2021/05/29 00:13:53;;;;;;;;;;;12.10;99.90;;;;;;4991793;28;19909;-77
2021/05/29 00:16:18;;;;;;;;;;;12.10;99.90;;;;;;4995338;28;19959;-77
2021/05/29 00:18:44;;;;;;;;;;;12.00;99.90;;;;;;4995667;28;20357;-77
2021/05/29 00:21:09;;;;;;;;;;;12.00;99.90;;;;;;4997187;28;20019;-77
2021/05/29 00:23:35;;;;;;;;;;;12.10;99.90;;;;;;4997140;28;20000;-77
2021/05/29 00:26:00;;;;;;;;;;;12.00;99.90;;;;;;4997371;28;19913;-77
2021/05/29 00:28:26;;;;;;;;;;;12.00;99.90;;;;;;4995783;28;19905;-77
2021/05/29 00:30:51;;;;;;;;;;;11.90;99.90;;;;;;4995590;28;19941;-77
2021/05/29 00:33:17;;;;;;;;;;;12.00;99.90;;;;;;4996752;28;19916;-77
2021/05/29 00:35:42;;;;;;;;;;;12.00;99.90;;;;;;4996933;28;20015;-77
2021/05/29 00:38:08;;;;;;;;;;;12.00;99.90;;;;;;4995691;28;19928;-77
2021/05/29 00:40:34;;;;;;;;;;;11.90;99.90;;;;;;4995355;28;19906;-77
2021/05/29 00:43:00;;;;;;;;;;;11.90;99.90;;;;;;4996732;28;19906;-77
2021/05/29 00:45:27;;;;;;;;;;;11.90;99.90;;;;;;4996407;28;19968;-77
2021/05/29 00:47:52;;;;;;;;;;;11.90;99.90;;;;;;4996572;28;19909;-77
2021/05/29 00:50:18;;;;;;;;;;;11.90;99.90;;;;;;4996434;28;19913;-77
2021/05/29 00:52:44;;;;;;;;;;;11.90;99.90;;;;;;4996531;28;20285;-77
2021/05/29 00:55:12;;;;;;;;;;;11.90;99.90;;;;;;4996664;28;19948;-77
2021/05/29 00:57:39;;;;;;;;;;;11.90;99.90;;;;;;4979063;28;20454;-77
2021/05/29 01:00:05;;;;;;;;;;;11.80;99.90;;;;;;4978688;28;20281;-77
2021/05/29 01:02:31;;;;;;;;;;;11.70;99.90;;;;;;4996225;28;20479;-78
2021/05/29 01:04:56;;;;;;;;;;;11.60;99.90;;;;;;4978805;28;19944;-77
2021/05/29 01:07:22;;;;;;;;;;;11.50;99.90;;;;;;4996362;28;19906;-77
2021/05/29 01:09:47;;;;;;;;;;;11.50;99.90;;;;;;4978465;28;20373;-77
2021/05/29 01:12:14;;;;;;;;;;;11.40;99.90;;;;;;4995668;28;20277;-77
2021/05/29 01:14:48;;;;;;;;;;;11.30;99.90;;;;;;4978403;28;19905;-77
2021/05/29 01:17:13;;;;;;;;;;;11.30;99.90;;;;;;4996168;28;19913;-77
2021/05/29 01:19:39;;;;;;;;;;;11.30;99.90;;;;;;4978515;28;19906;-77
2021/05/29 01:22:05;;;;;;;;;;;11.20;99.90;;;;;;4995988;28;19960;-77
2021/05/29 01:24:31;;;;;;;;;;;11.10;99.90;;;;;;4996142;28;20391;-77
2021/05/29 01:26:56;;;;;;;;;;;11.10;99.90;;;;;;4994778;28;20000;-77
2021/05/29 01:29:22;;;;;;;;;;;11.20;99.90;;;;;;4995595;28;19953;-77
2021/05/29 01:31:51;;;;;;;;;;;11.20;99.90;;;;;;4995807;28;19906;-77
2021/05/29 01:34:19;;;;;;;;;;;11.10;99.90;;;;;;4978290;28;19916;-77
2021/05/29 01:36:45;;;;;;;;;;;11.00;99.90;;;;;;4978337;28;20001;-77
2021/05/29 01:39:10;;;;;;;;;;;10.90;99.90;;;;;;4995506;28;19992;-77
2021/05/29 01:41:36;;;;;;;;;;;10.80;99.90;;;;;;4978168;28;19906;-77
2021/05/29 01:44:02;;;;;;;;;;;10.80;99.90;;;;;;4995524;28;19996;-77
2021/05/29 01:46:28;;;;;;;;;;;10.70;99.90;;;;;;4995432;28;19917;-77
2021/05/29 01:48:53;;;;;;;;;;;10.60;99.90;;;;;;4977976;28;20293;-77
2021/05/29 01:51:23;;;;;;;;;;;10.50;99.90;;;;;;4977924;28;20285;-77
2021/05/29 01:53:49;;;;;;;;;;;10.50;99.90;;;;;;4977936;28;19909;-77
2021/05/29 01:56:14;;;;;;;;;;;10.50;99.90;;;;;;4977959;28;20280;-77
2021/05/29 01:58:41;;;;;;;;;;;10.50;99.90;;;;;;4995243;28;19906;-77
2021/05/29 02:01:08;;;;;;;;;;;10.40;99.90;;;;;;4995138;28;19906;-77
2021/05/29 02:03:33;;;;;;;;;;;10.40;99.90;;;;;;4978268;28;19964;-76
2021/05/29 02:05:59;;;;;;;;;;;10.50;99.90;;;;;;4977673;28;19910;-77
2021/05/29 02:08:24;;;;;;;;;;;10.70;99.90;;;;;;4994853;28;20369;-77
2021/05/29 02:10:50;;;;;;;;;;;10.80;99.90;;;;;;4994625;28;19906;-76
2021/05/29 02:13:22;;;;;;;;;;;10.80;99.90;;;;;;4994740;28;20329;-76
2021/05/29 02:15:47;;;;;;;;;;;10.80;99.90;;;;;;4994833;28;20392;-77
2021/05/29 02:18:13;;;;;;;;;;;10.70;99.90;;;;;;4995124;28;19906;-77
2021/05/29 02:20:45;;;;;;;;;;;10.70;99.90;;;;;;4977255;28;19959;-77
2021/05/29 02:23:12;;;;;;;;;;;10.60;99.90;;;;;;4977337;28;19905;-76
2021/05/29 02:25:38;;;;;;;;;;;10.50;99.90;;;;;;4977193;28;19906;-77
2021/05/29 02:28:05;;;;;;;;;;;10.40;99.90;;;;;;4977335;28;19905;-77
2021/05/29 02:30:30;;;;;;;;;;;10.30;99.90;;;;;;4977094;28;19910;-76
2021/05/29 02:32:56;;;;;;;;;;;10.30;99.90;;;;;;4977008;28;19967;-77
2021/05/29 02:35:21;;;;;;;;;;;10.20;99.90;;;;;;4977154;28;19921;-76
2021/05/29 02:37:47;;;;;;;;;;;10.10;99.90;;;;;;4994864;28;20399;-76
2021/05/29 02:40:13;;;;;;;;;;;10.10;99.90;;;;;;4993963;28;19913;-77
2021/05/29 02:42:38;;;;;;;;;;;10.00;99.90;;;;;;4994440;28;20000;-77
2021/05/29 02:45:04;;;;;;;;;;;10.00;99.90;;;;;;4982099;28;19914;-77
2021/05/29 02:47:30;;;;;;;;;;;9.90;99.90;;;;;;4994474;28;19913;-77
2021/05/29 02:49:55;;;;;;;;;;;9.90;99.90;;;;;;4994207;28;20071;-77
2021/05/29 02:52:21;;;;;;;;;;;10.00;99.90;;;;;;4993884;28;20361;-77
2021/05/29 02:54:46;;;;;;;;;;;9.80;99.90;;;;;;4992953;28;19912;-77
2021/05/29 02:57:12;;;;;;;;;;;9.90;99.90;;;;;;4994236;28;20337;-77
2021/05/29 02:59:38;;;;;;;;;;;9.80;99.90;;;;;;4994010;28;19988;-77
2021/05/29 03:02:08;;;;;;;;;;;9.80;99.90;;;;;;4994358;28;19912;-77
2021/05/29 03:04:34;;;;;;;;;;;9.70;99.90;;;;;;4992920;28;20444;-77
2021/05/29 03:07:00;;;;;;;;;;;9.60;99.90;;;;;;4994039;28;19945;-77
2021/05/29 03:09:26;;;;;;;;;;;9.60;99.90;;;;;;4993723;28;19920;-77
2021/05/29 03:11:51;;;;;;;;;;;9.50;99.90;;;;;;4993858;28;19906;-77
2021/05/29 03:14:17;;;;;;;;;;;9.50;99.90;;;;;;4993806;28;19963;-77
2021/05/29 03:16:42;;;;;;;;;;;9.50;99.90;;;;;;4992584;28;19960;-76
2021/05/29 03:19:08;;;;;;;;;;;9.50;99.90;;;;;;4992527;28;19906;-77
2021/05/29 03:21:33;;;;;;;;;;;9.50;99.90;;;;;;4993684;28;19960;-76
2021/05/29 03:23:59;;;;;;;;;;;9.50;99.90;;;;;;4993671;28;19952;-77
2021/05/29 03:26:25;;;;;;;;;;;9.50;99.90;;;;;;4993818;28;19906;-76
2021/05/29 03:28:50;;;;;;;;;;;9.50;99.90;;;;;;4992315;28;19906;-77
2021/05/29 03:31:16;;;;;;;;;;;9.50;99.90;;;;;;4992267;28;19910;-77
2021/05/29 03:33:41;;;;;;;;;;;9.50;99.90;;;;;;4993531;28;19956;-77
2021/05/29 03:36:07;;;;;;;;;;;9.60;99.90;;;;;;4993627;28;19913;-77
2021/05/29 03:38:33;;;;;;;;;;;9.60;99.90;;;;;;4993884;28;19906;-77
2021/05/29 03:40:58;;;;;;;;;;;9.60;99.90;;;;;;4992388;28;19912;-77
2021/05/29 03:43:23;;;;;;;;;;;9.60;99.90;;;;;;4993452;28;19938;-77
2021/05/29 03:45:49;;;;;;;;;;;9.50;99.90;;;;;;4992069;28;19971;-77
2021/05/29 03:48:14;;;;;;;;;;;9.40;99.90;;;;;;4993295;28;19944;-77
2021/05/29 03:50:40;;;;;;;;;;;9.50;99.90;;;;;;4992459;28;19906;-77
2021/05/29 03:53:06;;;;;;;;;;;9.60;99.90;;;;;;4991800;28;19920;-77
2021/05/29 03:55:33;;;;;;;;;;;9.60;99.90;;;;;;4993463;28;19906;-76
2021/05/29 03:57:58;;;;;;;;;;;9.60;99.90;;;;;;4992037;28;19906;-77
2021/05/29 04:00:24;;;;;;;;;;;9.50;99.90;;;;;;4991870;28;19906;-77
2021/05/29 04:02:50;;;;;;;;;;;9.50;99.90;;;;;;4993256;28;20150;-77
2021/05/29 04:05:16;;;;;;;;;;;9.50;99.90;;;;;;4991982;28;20324;-76
2021/05/29 04:07:41;;;;;;;;;;;9.50;99.90;;;;;;4993035;28;19905;-77
2021/05/29 04:10:08;;;;;;;;;;;9.60;99.90;;;;;;4992971;28;19927;-77
2021/05/29 04:12:33;;;;;;;;;;;9.60;99.90;;;;;;4991748;28;19973;-76
2021/05/29 04:14:59;;;;;;;;;;;9.60;99.90;;;;;;4991680;28;19953;-76
2021/05/29 04:17:25;;;;;;;;;;;9.60;99.90;;;;;;4992801;28;19912;-78
2021/05/29 04:19:50;;;;;;;;;;;9.70;99.90;;;;;;4991159;28;19978;-77
2021/05/29 04:22:16;;;;;;;;;;;9.70;99.90;;;;;;4991447;28;19916;-77
2021/05/29 04:24:41;;;;;;;;;;;9.70;99.90;;;;;;4991325;28;20269;-77
2021/05/29 04:27:07;;;;;;;;;;;9.80;99.90;;;;;;4992574;28;19916;-77
2021/05/29 04:29:32;;;;;;;;;;;9.90;99.90;;;;;;4992540;28;20063;-77
2021/05/29 04:31:59;;;;;;;;;;;10.00;99.90;;;;;;4992929;28;19906;-77
2021/05/29 04:34:25;;;;;;;;;;;10.10;99.90;;;;;;4991661;28;19910;-76
2021/05/29 04:36:50;;;;;;;;;;;10.20;99.90;;;;;;4991715;28;20012;-77
2021/05/29 04:39:16;;;;;;;;;;;10.30;99.90;;;;;;4991402;28;19910;-77
2021/05/29 04:41:41;;;;;;;;;;;10.20;99.90;;;;;;4991620;28;20301;-77
2021/05/29 04:44:07;;;;;;;;;;;10.40;99.90;;;;;;4991295;28;19906;-76
2021/05/29 04:46:38;;;;;;;;;;;10.70;99.90;;;;;;4991709;28;19922;-77
2021/05/29 04:49:04;;;;;;;;;;;11.60;99.90;;;;;;4991157;28;19905;-77
2021/05/29 04:51:30;;;;;;;;;;;12.40;99.90;;;;;;4991510;28;20018;-77
2021/05/29 04:53:55;;;;;;;;;;;13.70;99.90;;;;;;4973662;28;19968;-77
2021/05/29 04:56:20;;;;;;;;;;;13.60;99.90;;;;;;4973965;28;19906;-77
2021/05/29 04:58:46;;;;;;;;;;;13.00;99.90;;;;;;4973790;28;19913;-77
2021/05/29 05:01:12;;;;;;;;;;;12.60;99.90;;;;;;4991715;28;19912;-77
2021/05/29 05:03:38;;;;;;;;;;;12.20;99.90;;;;;;4994836;28;19906;-77
2021/05/29 05:06:03;;;;;;;;;;;12.00;99.90;;;;;;4976433;28;19944;-77
2021/05/29 05:08:29;;;;;;;;;;;12.10;99.90;;;;;;4994730;28;20418;-77
2021/05/29 05:10:57;;;;;;;;;;;12.50;99.90;;;;;;4977124;28;20423;-77
2021/05/29 05:13:23;;;;;;;;;;;13.40;99.90;;;;;;4976881;28;19933;-77
2021/05/29 05:15:50;;;;;;;;;;;13.60;99.90;;;;;;4994750;28;19913;-77
2021/05/29 05:18:15;;;;;;;;;;;13.40;99.90;;;;;;4994789;28;19906;-76
2021/05/29 05:20:42;;;;;;;;;;;13.10;99.90;;;;;;4994476;28;20332;-77
2021/05/29 05:23:08;;;;;;;;;;;13.00;99.90;;;;;;4994723;28;19905;-77
2021/05/29 05:25:33;;;;;;;;;;;12.80;99.90;;;;;;4977353;28;19960;-77
2021/05/29 05:27:59;;;;;;;;;;;12.70;99.90;;;;;;4977712;28;19992;-77
2021/05/29 05:30:24;;;;;;;;;;;15.20;99.90;;;;;;4977130;28;19913;-77
2021/05/29 05:32:50;;;;;;;5.00;2.65;;;18.80;99.90;;;;;;4994371;28;19917;-77
2021/05/29 05:35:17;;;;;;;;;;;21.20;99.90;;;;;;4977462;28;20059;-78
2021/05/29 05:37:44;;;;;;;4.07;2.70;;;23.40;98.50;;;;;;4995494;28;19906;-78
2021/05/29 05:40:10;;;;;;;;;;;24.50;92.90;;;;;;4977403;28;20304;-78
2021/05/29 05:42:37;;;;;;;3.15;2.47;;;25.50;85.90;;;;;;4995636;28;20357;-78
2021/05/29 05:45:04;;;;;;;3.97;2.40;;;26.40;78.10;;;;;;4982193;28;20034;-78
2021/05/29 05:47:29;;;;;;;7.30;2.97;;;27.30;72.20;;;;;;4994917;28;20069;-78
2021/05/29 05:49:55;;;;;;;2.80;1.85;;;26.80;70.10;;;;;;4992890;28;20026;-77
2021/05/29 05:52:20;;;;;;;3.13;2.08;;;26.60;69.40;;;;;;4992868;28;20430;-77
2021/05/29 05:54:46;;;;;;;4.43;2.40;;;27.40;69.60;;;;;;4992834;28;20081;-78
2021/05/29 05:57:13;;;;;;;2.80;2.50;;;27.60;65.30;;;;;;4994921;28;20031;-78
2021/05/29 05:59:39;;;;;;;3.30;2.50;;;27.00;67.60;;;;;;4993414;28;20069;-78
2021/05/29 06:02:04;;;;;;;2.43;2.20;;;27.30;65.00;;;;;;4994494;28;20410;-78
2021/05/29 06:04:30;;;;;;;;;;;27.70;63.80;;;;;;4993268;28;20029;-78
2021/05/29 06:06:55;;;;;;;;;;;26.90;64.40;;;;;;4993606;28;19910;-79
2021/05/29 06:09:21;;;;;;;;;;;26.60;65.70;;;;;;4994992;28;19936;-79
2021/05/29 06:11:46;;;;;;;;;;;27.80;64.10;;;;;;4993133;28;20361;-79
2021/05/29 06:19:24;;;;;;;;;;;28.80;61.30;;;;;;4995582;28;19936;-78
2021/05/29 06:21:51;;;;;;;;;;;28.70;59.20;;;;;;4993647;28;19910;-76
2021/05/29 06:24:18;;;;;;;;;;;29.60;59.90;;;;;;4994732;28;19910;-77
2021/05/29 06:26:44;;;;;;;;;;;28.80;59.30;;;;;;4994090;28;19981;-78
2021/05/29 06:29:10;;;;;;;;;;;29.40;59.40;;;;;;4993166;28;20382;-78
2021/05/29 06:31:35;;;;;;;;;;;30.20;58.00;;;;;;4994581;28;20377;-78
2021/05/29 06:34:01;;;;;;;;;;;30.00;57.90;;;;;;4993250;28;20337;-79
2021/05/29 06:36:27;;;;;;;;;;;30.50;57.10;;;;;;4994020;28;20361;-77
2021/05/29 06:38:53;;;;;;;;;;;31.60;55.30;;;;;;4992428;28;19906;-76
2021/05/29 06:41:18;;;;;;;;;;;31.30;52.80;;;;;;4992818;28;20037;-76
2021/05/29 06:43:44;;;;;;;;;;;30.50;53.00;;;;;;4992934;28;24086;-76
2021/05/29 06:46:09;;;;;;;;;;;30.80;52.80;;;;;;4994104;28;19956;-76
2021/05/29 06:48:35;;;;;;;;;;;31.20;51.80;;;;;;4976440;28;19992;-76
2021/05/29 06:51:00;;;;;;;;;;;31.20;52.90;;;;;;4993878;28;20443;-76
2021/05/29 06:53:34;;;;;;;;;;;30.90;50.60;;;;;;4976432;28;19957;-77
2021/05/29 06:58:49;;;;;;;;;;;30.70;51.70;;;;;;4993844;28;19916;-77
2021/05/29 07:01:16;;;;;;;;;;;30.80;51.70;;;;;;4993896;28;19912;-76
2021/05/29 07:03:42;;;;;;;;;;;31.80;51.00;;;;;;4994040;28;19905;-77
2021/05/29 07:06:07;;;;;;;;;;;30.50;50.80;;;;;;4993993;28;19916;-76
2021/05/29 07:08:33;;;;;;;;;;;30.80;50.90;;;;;;4993630;28;19906;-77
2021/05/29 07:10:58;;;;;;;;;;;31.00;50.80;;;;;;4994422;28;19967;-77
2021/05/29 07:13:24;;;;;;;;;;;32.40;49.90;;;;;;4976473;28;19917;-76
2021/05/29 07:15:49;;;;;;;;;;;33.30;50.10;;;;;;4976765;28;19905;-79
2021/05/29 07:18:16;;;;;;;;;;;32.00;47.80;;;;;;4993584;28;20365;-76
2021/05/29 07:20:42;;;;;;;;;;;30.50;49.70;;;;;;4975894;28;19906;-76
2021/05/29 07:23:07;;;;;;;;;;;31.50;48.90;;;;;;4976262;28;19973;-76
2021/05/29 07:25:33;;;;;;;;;;;31.30;47.80;;;;;;4976021;28;20340;-79
2021/05/29 07:27:59;;;;;;;;;;;30.90;50.20;;;;;;4993459;28;19916;-78
2021/05/29 07:30:24;;;;;;;;;;;31.00;48.90;;;;;;4993049;28;20211;-76
2021/05/29 07:32:50;;;;;;;;;;;31.20;49.50;;;;;;4992773;28;19914;-78
2021/05/29 07:35:16;;;;;;;0.90;0.90;;;29.50;49.40;;;;;;4976203;28;20172;-78
2021/05/29 07:37:41;;;;;;;;;;;29.90;50.00;;;;;;4994456;28;20026;-79
2021/05/29 07:40:07;;;;;;;;;;;28.90;53.90;;;;;;4994504;28;20285;-79
2021/05/29 07:42:33;;;;;;;;;;;29.20;52.10;;;;;;4976829;28;19913;-79
2021/05/29 07:44:59;;;;;;;;;;;27.70;52.80;;;;;;4993438;28;19920;-78
2021/05/29 07:47:24;;;;;;;;;;;28.50;51.50;;;;;;4976844;28;20595;-78
2021/05/29 07:49:50;;;;;;;;;;;29.30;53.90;;;;;;4976228;28;20427;-78
2021/05/29 07:52:15;;;;;;;;;;;28.60;52.10;;;;;;4976609;28;19956;-79
2021/05/29 07:54:41;;;;;;;;;;;29.50;53.90;;;;;;4976307;28;20000;-79
2021/05/29 07:57:07;;;;;;;;;;;29.20;52.00;;;;;;4977980;28;19906;-78
2021/05/29 07:59:33;;;;;;;;;;;28.60;51.60;;;;;;4994728;28;19905;-79
2021/05/29 08:01:58;;;;;;;;;;;28.50;52.30;;;;;;4976740;28;19997;-79
2021/05/29 08:04:23;;;;;;;;;;;29.20;50.40;;;;;;4995746;28;19956;-78
2021/05/29 08:06:49;;;;;;;;;;;30.90;52.10;;;;;;4977523;28;19906;-78
2021/05/29 08:09:14;;;;;;;;;;;30.20;49.30;;;;;;4995058;28;19906;-78
2021/05/29 08:11:40;;;;;;;;;;;30.90;52.70;;;;;;4995062;28;19912;-80
2021/05/29 08:14:07;;;;;;;;;;;30.90;50.80;;;;;;4994998;28;19965;-80
2021/05/29 08:16:33;;;;;;;;;;;30.80;51.70;;;;;;4977246;28;19967;-80
2021/05/29 08:18:58;;;;;;;;;;;30.70;47.70;;;;;;4977515;28;19913;-79
2021/05/29 08:21:24;;;;;;;;;;;31.20;48.10;;;;;;4977735;28;20365;-80
2021/05/29 08:23:50;;;;;;;;;;;31.30;47.10;;;;;;4995040;28;20347;-80
2021/05/29 08:26:16;;;;;;;1.83;1.00;;;30.40;47.20;;;;;;4995375;28;19906;-79
2021/05/29 08:28:44;;;;;;;1.83;0.80;;;32.30;50.50;;;;;;4994422;28;20027;-80
2021/05/29 08:31:10;;;;;;;1.15;1.05;;;31.10;46.90;;;;;;4995176;28;20027;-79
2021/05/29 08:33:36;;;;;;;1.65;1.00;;;31.50;48.30;;;;;;4994731;28;20034;-79
2021/05/29 08:36:02;;;;;;;0.80;0.80;;;31.20;48.70;;;;;;4994791;28;20026;-78
2021/05/29 08:38:28;;;;;;;1.75;1.15;;;32.80;50.70;;;;;;4997927;28;20083;-77
2021/05/29 08:40:54;;;;;;;1.57;0.83;;;32.30;47.90;;;;;;4998331;28;20418;-79
2021/05/29 08:43:19;;;;;;;1.30;0.93;;;32.40;49.50;;;;;;4980426;28;20026;-76
2021/05/29 08:45:45;;;;;;;0.90;0.90;;;32.40;48.30;;;;;;4997904;28;20117;-78
2021/05/29 08:48:11;;;;;;;0.90;0.80;;;32.40;46.40;;;;;;4979998;28;20165;-77
2021/05/29 08:50:37;;;;;;;1.50;1.30;;;32.80;48.20;;;;;;4997587;28;20026;-77
2021/05/29 08:53:03;;;;;;;1.03;0.77;;;32.80;46.10;;;;;;4980076;28;20034;-78
2021/05/29 08:55:29;;;;;;;1.02;0.80;;;32.10;47.50;;;;;;4979584;28;20420;-77
2021/05/29 08:57:55;;;;;;;1.67;1.20;;;31.60;49.20;;;;;;4997463;28;20098;-79
2021/05/29 09:00:26;;;;;;;1.53;1.23;;;31.80;47.70;;;;;;4979898;28;20393;-77
2021/05/29 09:03:01;;;;;;;1.15;1.02;;;31.70;48.00;;;;;;4979703;28;20033;-77
2021/05/29 09:05:51;;;;;;;1.50;1.40;;;32.00;47.70;;;;;;4997555;28;20493;-78
2021/05/29 09:08:21;;;;;;;1.25;1.00;;;32.50;46.80;;;;;;4997063;28;20488;-78
2021/05/29 09:10:50;;;;;;;1.52;1.10;;;32.00;47.30;;;;;;4979824;28;20481;-80
2021/05/29 09:13:18;;;;;;;1.45;0.95;;;32.40;47.90;;;;;;4980191;28;20034;-80
2021/05/29 09:15:46;;;;;;;;;;;31.90;45.20;;;;;;4979538;28;19905;-77
2021/05/29 09:18:25;;;;;;;;;;;30.60;46.10;;;;;;4979457;28;19906;-77
2021/05/29 09:20:51;;;;;;;1.85;0.57;;;29.90;47.30;;;;;;4998143;28;20000;-79
2021/05/29 09:23:17;;;;;;;0.73;0.73;;;28.40;47.50;;;;;;4979436;28;20037;-79
2021/05/29 09:25:55;;;;;;;0.57;0.57;;;28.40;47.60;;;;;;4994952;28;20114;-79
2021/05/29 09:28:23;;;;;;;1.30;1.15;;;27.70;48.40;;;;;;4978851;28;20026;-76
2021/05/29 09:30:53;;;;;;;;;;;27.70;51.10;;;;;;4997693;28;20277;-77
2021/05/29 09:33:23;;;;;;;;;;;26.90;51.00;;;;;;4979738;28;20369;-78
2021/05/29 09:35:55;;;;;;;;;;;27.40;51.70;;;;;;4980147;28;19913;-78
2021/05/29 09:38:22;;;;;;;;;;;26.80;51.10;;;;;;4996768;28;19988;-77
2021/05/29 09:40:48;;;;;;;;;;;28.00;49.90;;;;;;4997547;28;19913;-76
2021/05/29 09:43:14;;;;;;;;;;;28.70;49.30;;;;;;4997525;28;19906;-76
2021/05/29 09:45:39;;;;;;;;;;;28.60;51.20;;;;;;4997492;28;19920;-78
2021/05/29 09:48:08;;;;;;;;;;;26.70;49.50;;;;;;4977969;28;19953;-77
2021/05/29 09:50:33;;;;;;;1.13;0.80;;;26.50;53.00;;;;;;4978798;28;19912;-76
2021/05/29 09:52:59;;;;;;;0.80;0.80;;;25.80;55.30;;;;;;4996229;28;20082;-77
2021/05/29 09:55:35;;;;;;;;;;;26.20;50.90;;;;;;4997203;28;20030;-78
2021/05/29 09:58:01;;;;;;;;;;;25.60;54.60;;;;;;4997122;28;20273;-79
2021/05/29 10:00:40;;;;;;;0.80;0.80;;;27.80;53.10;;;;;;4996742;28;19910;-79
2021/05/29 10:03:07;;;;;;;0.70;0.70;;;28.90;52.70;;;;;;4996135;28;20065;-76
2021/05/29 10:05:33;;;;;;;;;;;28.30;51.20;;;;;;4976432;28;20532;-78
2021/05/29 10:07:59;;;;;;;;;;;26.80;54.40;;;;;;4978247;28;19906;-75
2021/05/29 10:10:25;;;;;;;;;;;25.50;53.80;;;;;;4978336;28;19917;-76
2021/05/29 10:12:51;;;;;;;;;;;24.90;53.60;;;;;;4978215;28;20059;-77
2021/05/29 10:15:17;;;;;;;;;;;24.90;56.00;;;;;;4978401;28;19956;-77
2021/05/29 10:17:54;;;;;;;;;;;25.30;52.10;;;;;;4978731;28;20281;-79
2021/05/29 10:20:19;;;;;;;;;;;25.60;55.10;;;;;;4978614;28;20358;-81
2021/05/29 10:22:45;;;;;;;;;;;26.10;52.60;;;;;;4978930;28;19912;-79
2021/05/29 10:25:14;;;;;;;;;;;25.90;53.50;;;;;;4978792;28;19996;-79
2021/05/29 10:27:44;;;;;;;;;;;26.30;52.80;;;;;;4996396;28;20374;-79
2021/05/29 10:30:11;;;;;;;;;;;26.30;49.80;;;;;;4978461;28;19906;-79
2021/05/29 10:32:36;;;;;;;;;;;26.40;50.70;;;;;;4978344;28;19944;-79
2021/05/29 10:35:09;;;;;;;;;;;27.30;50.00;;;;;;4978482;28;20393;-79
2021/05/29 10:37:40;;;;;;;;;;;27.60;47.40;;;;;;4978730;28;20000;-79
2021/05/29 10:40:22;;;;;;;2.85;0.90;;;27.90;50.80;;;;;;4995564;28;20329;-79
2021/05/29 10:43:01;;;;;;;;;;;27.10;49.90;;;;;;4996270;28;20389;-79
2021/05/29 10:45:27;;;;;;;;;;;26.90;48.70;;;;;;4986929;28;19972;-78
2021/05/29 10:48:02;;;;;;;;;;;28.10;49.80;;;;;;4993827;28;19906;-77
2021/05/29 10:53:49;;;;;;;0.60;0.60;;;29.30;49.20;;;;;;4994314;28;20034;-75
2021/05/29 10:56:15;;;;;;;3.20;0.57;;;30.00;45.30;;;;;;4993122;28;20025;-78
2021/05/29 10:59:00;;;;;;;1.27;0.60;;;28.70;48.50;;;;;;4994119;28;20022;-78
2021/05/29 11:01:46;;;;;;;0.30;0.30;;;29.40;46.30;;;;;;4995886;28;20105;-80
2021/05/29 11:04:12;;;;;;;0.40;0.38;;;29.50;47.60;;;;;;4981423;28;20066;-80
2021/05/29 11:06:41;;;;;;;1.05;0.65;;;29.80;45.30;;;;;;4994722;28;20029;-78
2021/05/29 11:09:07;;;;;;;0.63;0.50;;;29.20;48.30;;;;;;4994146;28;20057;-79
2021/05/29 11:11:48;;;;;;;0.57;0.50;;;28.40;44.70;;;;;;4993157;28;20054;-78
2021/05/29 11:14:21;;;;;;;;;;;28.20;46.40;;;;;;4994912;28;20023;-78
2021/05/29 11:16:49;;;;;;;;;;;27.20;45.70;;;;;;4995431;28;19909;-79
2021/05/29 11:19:15;;;;;;;;;;;26.80;47.40;;;;;;4993469;28;19949;-78
2021/05/29 11:21:59;;;;;;;;;;;25.70;47.10;;;;;;4994686;28;19912;-78
2021/05/29 11:24:29;;;;;;;;;;;24.50;52.00;;;;;;4993225;28;20343;-78
2021/05/29 11:26:54;;;;;;;;;;;22.80;52.60;;;;;;4993822;28;19906;-77
2021/05/29 11:29:20;;;;;;;;;;;22.60;52.80;;;;;;4992137;28;19968;-78
2021/05/29 11:31:46;;;;;;;;;;;22.00;53.80;;;;;;4994472;28;20140;-78
2021/05/29 11:34:12;;;;;;;;;;;21.30;54.20;;;;;;4993924;28;19917;-77
2021/05/29 11:36:39;;;;;;;;;;;21.30;56.10;;;;;;4994700;28;19906;-77
2021/05/29 11:39:09;;;;;;;;;;;22.50;53.30;;;;;;4992954;28;19906;-79
2021/05/29 11:41:35;;;;;;;;;;;23.20;51.50;;;;;;4994670;28;19914;-78
2021/05/29 11:44:02;;;;;;;;;;;23.90;51.70;;;;;;4993011;28;19913;-78
2021/05/29 11:46:28;;;;;;;;;;;24.20;57.10;;;;;;4977012;28;19992;-80
2021/05/29 11:48:55;;;;;;;;;;;22.90;54.50;;;;;;4976324;28;20157;-78
2021/05/29 11:51:22;;;;;;;;;;;21.50;56.60;;;;;;4975639;28;19928;-77
2021/05/29 11:53:55;;;;;;;;;;;21.30;56.10;;;;;;4976162;28;19910;-77
2021/05/29 11:56:31;;;;;;;;;;;21.80;55.40;;;;;;4975854;28;19905;-77
2021/05/29 11:58:56;;;;;;;;;;;22.00;55.40;;;;;;4994369;28;19909;-77
2021/05/29 12:01:32;;;;;;;;;;;21.70;55.70;;;;;;4995054;28;19912;-79
2021/05/29 12:03:59;;;;;;;;;;;21.00;56.20;;;;;;4976980;28;19905;-78
2021/05/29 12:06:37;;;;;;;;;;;21.60;59.30;;;;;;4977053;28;19905;-79
2021/05/29 12:09:07;;;;;;;;;;;22.30;56.10;;;;;;4994267;28;19905;-78
2021/05/29 12:11:33;;;;;;;;;;;22.20;56.70;;;;;;4993219;28;19960;-77
2021/05/29 12:14:22;;;;;;;;;;;21.50;54.70;;;;;;4993850;28;19916;-77
2021/05/29 12:17:01;;;;;;;;;;;21.50;56.30;;;;;;4970491;28;19929;-77
2021/05/29 12:19:35;;;;;;;;;;;22.40;55.50;;;;;;4976426;28;19953;-77
2021/05/29 12:22:01;;;;;;;;;;;22.90;53.40;;;;;;4976605;28;19958;-77
2021/05/29 12:24:27;;;;;;;;;;;22.50;55.70;;;;;;4994511;28;19913;-80
2021/05/29 12:26:53;;;;;;;;;;;21.30;56.70;;;;;;4993809;28;19997;-78
2021/05/29 12:29:25;;;;;;;;;;;21.10;53.00;;;;;;4993558;28;19949;-78
2021/05/29 12:31:52;;;;;;;;;;;21.90;53.90;;;;;;4975894;28;19957;-76
2021/05/29 12:34:18;;;;;;;;;;;22.60;58.10;;;;;;4976133;28;20300;-78
2021/05/29 12:36:57;;;;;;;;;;;23.20;54.40;;;;;;4976269;28;19910;-77
2021/05/29 12:39:23;;;;;;;;;;;23.60;54.40;;;;;;4975512;28;19952;-78
2021/05/29 12:41:49;;;;;;;;;;;22.50;54.90;;;;;;4992903;28;19917;-77
2021/05/29 12:44:15;;;;;;;;;;;21.40;55.80;;;;;;4975164;28;19905;-77
2021/05/29 12:46:40;;;;;;;;;;;20.60;57.30;;;;;;4975000;28;19968;-78
2021/05/29 12:49:07;;;;;;;;;;;20.90;57.50;;;;;;4975795;28;19953;-77
2021/05/29 12:51:38;;;;;;;;;;;21.70;55.50;;;;;;4993512;28;19996;-77
2021/05/29 12:54:04;;;;;;;;;;;22.20;55.10;;;;;;4976059;28;19917;-78
2021/05/29 12:56:29;;;;;;;;;;;22.70;56.60;;;;;;4993148;28;19905;-77
2021/05/29 12:58:58;;;;;;;;;;;22.70;53.40;;;;;;4975298;28;19965;-78
2021/05/29 13:01:54;;;;;;;;;;;22.80;55.20;;;;;;4976024;28;19905;-78
2021/05/29 13:10:38;;;;;;;;;;;22.90;54.50;;;;;;4992693;28;19913;-78
2021/05/29 13:12:38;;;;;;;;;;;23.40;53.60;;;;;;4988435;28;19925;-77
2021/05/29 13:15:17;;;;;;;;;;;23.30;54.80;;;;;;4975307;28;19906;-78
2021/05/29 13:17:42;;;;;;;;;;;23.30;52.80;;;;;;4976718;28;20266;-76
2021/05/29 13:20:16;;;;;;;;;;;23.40;53.20;;;;;;4994128;28;19913;-77
2021/05/29 13:22:41;;;;;;;;;;;22.60;53.20;;;;;;4994212;28;19968;-77
2021/05/29 13:25:08;;;;;;;;;;;22.70;51.10;;;;;;4979279;28;20381;-76
2021/05/29 13:27:33;;;;;;;;;;;22.70;51.10;;;;;;4978600;28;19906;-75
2021/05/29 13:30:08;;;;;;;;;;;22.30;50.40;;;;;;4995597;28;19928;-77
2021/05/29 13:32:33;;;;;;;;;;;22.40;50.60;;;;;;4978413;28;19960;-77
2021/05/29 13:34:59;;;;;;;;;;;22.90;54.10;;;;;;4995627;28;19914;-76
2021/05/29 13:37:25;;;;;;;;;;;23.00;53.80;;;;;;4978325;28;20004;-76
2021/05/29 13:39:50;;;;;;;;;;;23.30;51.40;;;;;;4977749;28;19993;-77
2021/05/29 13:42:16;;;;;;;;;;;23.00;51.00;;;;;;4977954;28;19913;-78
2021/05/29 13:44:42;;;;;;;;;;;22.90;48.90;;;;;;4980113;28;19920;-76
2021/05/29 13:47:08;;;;;;;;;;;22.70;51.40;;;;;;4994450;28;19906;-76
2021/05/29 13:49:34;;;;;;;;;;;23.20;53.70;;;;;;4994352;28;19906;-77
2021/05/29 13:52:00;;;;;;;;;;;23.20;51.60;;;;;;4995100;28;20365;-76
2021/05/29 13:54:25;;;;;;;;;;;22.60;51.00;;;;;;4993716;28;19936;-75
2021/05/29 13:56:51;;;;;;;;;;;22.20;51.70;;;;;;4993714;28;20021;-76
2021/05/29 13:59:16;;;;;;;;;;;22.30;55.30;;;;;;4995644;28;19909;-76
2021/05/29 14:01:42;;;;;;;;;;;22.60;52.90;;;;;;4994858;28;19941;-78
2021/05/29 14:04:08;;;;;;;;;;;22.20;52.30;;;;;;4993660;28;20350;-77
2021/05/29 14:06:34;;;;;;;;;;;22.10;51.50;;;;;;4994655;28;19952;-76
2021/05/29 14:08:59;;;;;;;;;;;22.60;51.70;;;;;;4993254;28;20312;-76
2021/05/29 14:11:27;;;;;;;;;;;22.70;53.30;;;;;;4993410;28;19913;-77
2021/05/29 14:13:53;;;;;;;;;;;23.10;51.90;;;;;;4994436;28;20258;-76
2021/05/29 14:16:18;;;;;;;;;;;22.50;49.40;;;;;;4993204;28;19912;-76
2021/05/29 14:18:45;;;;;;;;;;;22.30;50.40;;;;;;4993151;28;20000;-76
2021/05/29 14:21:11;;;;;;;;;;;22.40;50.80;;;;;;4993363;28;19912;-76